עמוד ראשי
METAR-TAF:

METAR-TAF

שדות תעופה :

סלוניקי, יוון

נמל התעופה הבינלאומי סלוניקי מקדוניה

קו רוחב: 40-31N, קו אורך: 022-58E, גובה: 8מטר

תצפית מזג אוויר נוכחית

הדו"ח נערך לפני 13דקות, בשעה 04:50 UTC
רוח 5קשר מכיוון מזרח/דרום-מזרח
טמפרטורת 10 צלסיוס
לחות 76%
לחץ 1018 hPa
ראות 10 קילומטר או יותר
ללא עננים שבסיסם נמוך מ 5000 רגל או קומולונימבוס

METAR: LGTS 270450Z 11005KT CAVOK 10/06 Q1018 NOSIG

זמן: 08:03 (05:03 UTC)

תחזית

הדו"ח נערך לפני 6 שעות ו 3דקות, בשעה 23:00 UTC
תחזית בתוקף מ 27 ב 00 UTC עד 27 ב 24 UTC
רוח 3קשר עם כיוונים משתנים
ראות 10 קילומטר או יותר
מעט עננים בגובה 3000רגל
יעשה מ
27 ב 10 UTC עד 27 ב 12 UTC
רוח 15קשר מכיוון דרום-מזרח
יעשה מ
27 ב 21 UTC עד 27 ב 23 UTC
רוח 3קשר עם כיוונים משתנים

TAF: LGTS 262300Z 2700/2724 VRB03KT 9999 FEW030 BECMG 2710/2712 14015KT BECMG 2721/2723 VRB03KT

תצפיות ותחזיות מזג אוויר לגבי יותר מ- 4,000 שדות תעופה ברחבי העולם. דוחות METAR ו- TAF.

התחנות הזמינות מסומנות בנקודות צהובות ואדומות על גבי המפה.

העבר את העכבר לנקודה הצבעונית על מנת לראות את שם התחנה.

לאחר מכן, לחץ כדי לראות את תוכן ואת תחזיות מזג האוויר.

כדי לשנות את המפה: לחץ על הכפתורים הירוקים עם הפלוס השחור כדי להתקרב; על הכפתור הירוק עם המקף כדי להתרחק; או בחיצים הירוקים למפות סמוכות.


METAR-TAF: